Time;durP1;ratioP1;P1;durP2;ratioP2;P2;SDS_P1;SDS_P2;PMS_P1;PMS_P2;Temp;Humidity;BMP_temperature;BMP_pressure;BME280_temperature;BME280_humidity;BME280_pressure;Samples;Min_cycle;Max_cycle;Signal;HPM_P1;HPM_P2
2021/04/07 20:32:36;;;;;;;3.73;1.30;;;4.10;99.90;;;;;;5100481;27;20292;-68
2021/04/07 20:35:04;;;;;;;2.53;1.40;;;3.90;99.90;;;;;;5091211;28;20267;-69
2021/04/07 20:37:32;;;;;;;2.50;1.37;;;3.90;99.90;;;;;;5092878;28;20210;-69
2021/04/07 20:39:58;;;;;;;4.20;1.70;;;3.90;99.90;;;;;;5094288;28;20176;-69
2021/04/07 20:42:24;;;;;;;3.70;1.43;;;3.90;99.90;;;;;;5095506;28;20196;-69
2021/04/07 20:44:50;;;;;;;5.80;1.80;;;3.90;99.90;;;;;;5094938;28;20185;-69
2021/04/07 20:47:15;;;;;;;6.67;1.70;;;4.00;99.90;;;;;;5091911;28;20183;-69
2021/04/07 20:49:41;;;;;;;3.77;1.60;;;4.00;99.90;;;;;;5098431;28;20234;-68
2021/04/07 20:52:08;;;;;;;6.13;1.90;;;4.10;99.90;;;;;;5094090;28;20215;-69
2021/04/07 20:54:35;;;;;;;8.70;1.83;;;4.10;99.90;;;;;;5102124;28;20186;-66
2021/04/07 20:57:01;;;;;;;2.30;1.40;;;4.00;99.90;;;;;;5108286;28;20184;-68
2021/04/07 20:59:27;;;;;;;3.23;1.30;;;4.00;99.90;;;;;;5109437;28;20209;-69
2021/04/07 21:01:52;;;;;;;8.67;1.53;;;4.00;99.90;;;;;;5109378;28;20607;-67
2021/04/07 21:04:18;;;;;;;2.10;1.00;;;4.00;99.90;;;;;;5108537;28;20175;-68
2021/04/07 21:06:44;;;;;;;6.83;1.63;;;4.00;99.90;;;;;;5106103;28;20184;-68
2021/04/07 21:09:09;;;;;;;3.67;1.30;;;4.00;99.90;;;;;;5094828;28;20185;-67
2021/04/07 21:11:35;;;;;;;6.53;1.77;;;4.00;99.90;;;;;;5093744;28;20218;-68
2021/04/07 21:14:01;;;;;;;7.53;1.83;;;4.10;99.90;;;;;;5107863;28;20318;-68
2021/04/07 21:16:26;;;;;;;8.77;2.10;;;4.10;99.90;;;;;;5106732;28;20163;-67
2021/04/07 21:18:53;;;;;;;5.80;1.17;;;4.20;99.90;;;;;;5107708;28;20172;-68
2021/04/07 21:21:18;;;;;;;3.43;1.60;;;4.20;99.90;;;;;;5106142;28;20630;-68
2021/04/07 21:23:44;;;;;;;8.10;1.57;;;4.30;99.90;;;;;;5108023;28;20181;-67
2021/04/07 21:26:10;;;;;;;2.37;1.87;;;4.20;99.90;;;;;;5096146;28;20168;-67
2021/04/07 21:28:35;;;;;;;9.17;1.67;;;4.10;99.90;;;;;;5087620;28;20223;-68
2021/04/07 21:31:01;;;;;;;7.27;1.67;;;4.10;99.90;;;;;;5086801;28;20554;-68
2021/04/07 21:33:26;;;;;;;6.87;1.43;;;4.00;99.90;;;;;;5087478;28;20165;-67
2021/04/07 21:35:52;;;;;;;3.93;1.40;;;4.00;99.90;;;;;;5087183;28;20196;-66
2021/04/07 21:38:17;;;;;;;6.83;2.17;;;4.00;99.90;;;;;;5089173;28;20259;-67
2021/04/07 21:40:43;;;;;;;9.67;1.40;;;3.90;99.90;;;;;;5089930;28;20972;-67
2021/04/07 21:43:16;;;;;;;5.43;1.30;;;3.90;99.90;;;;;;5080621;28;20252;-67
2021/04/07 21:45:41;;;;;;;5.37;1.50;;;3.90;99.90;;;;;;5076100;28;20671;-66
2021/04/07 21:48:07;;;;;;;6.90;1.97;;;3.90;99.90;;;;;;5076168;28;20248;-65
2021/04/07 21:50:33;;;;;;;7.73;1.50;;;3.90;99.90;;;;;;5075274;28;20200;-65
2021/04/07 21:52:58;;;;;;;6.03;1.50;;;3.90;99.90;;;;;;5074251;28;20172;-66
2021/04/07 21:55:24;;;;;;;8.97;1.87;;;3.90;99.90;;;;;;5073596;28;20180;-65
2021/04/07 21:57:49;;;;;;;4.03;1.70;;;4.00;99.90;;;;;;5073500;28;20187;-65
2021/04/07 22:00:18;;;;;;;6.77;1.70;;;4.00;99.90;;;;;;5073453;28;20539;-66
2021/04/07 22:02:45;;;;;;;5.13;1.40;;;4.00;99.90;;;;;;5073712;28;20192;-66
2021/04/07 22:05:12;;;;;;;5.97;1.80;;;3.90;99.90;;;;;;5074183;28;20169;-65
2021/04/07 22:07:38;;;;;;;11.80;1.53;;;3.90;99.90;;;;;;5081023;28;20176;-65
2021/04/07 22:10:15;;;;;;;8.17;1.37;;;3.90;99.90;;;;;;5093988;28;20538;-65
2021/04/07 22:12:41;;;;;;;7.30;2.03;;;3.90;99.90;;;;;;5087964;28;20279;-66
2021/04/07 22:15:14;;;;;;;9.13;1.83;;;3.90;99.90;;;;;;5073756;28;20177;-67
2021/04/07 22:17:40;;;;;;;6.83;2.33;;;3.90;99.90;;;;;;5087660;28;20263;-68
2021/04/07 22:20:09;;;;;;;7.90;1.73;;;4.00;99.90;;;;;;5092427;28;20280;-67
2021/04/07 22:22:37;;;;;;;4.70;1.60;;;3.90;99.90;;;;;;5093021;28;20192;-68
2021/04/07 22:25:14;;;;;;;7.70;1.50;;;4.00;99.90;;;;;;5093305;28;20175;-66
2021/04/07 22:27:40;;;;;;;4.87;1.43;;;4.00;99.90;;;;;;5093438;28;20546;-65
2021/04/07 22:30:10;;;;;;;6.57;1.90;;;4.00;99.90;;;;;;5093180;28;20168;-66
2021/04/07 22:32:36;;;;;;;6.93;1.53;;;4.00;99.90;;;;;;5091594;28;20232;-66
2021/04/07 22:35:03;;;;;;;6.47;1.77;;;4.10;99.90;;;;;;5092931;28;20632;-67
2021/04/07 22:37:28;;;;;;;10.77;1.93;;;4.20;99.90;;;;;;5091741;28;20199;-66
2021/04/07 22:39:54;;;;;;;5.90;1.97;;;4.20;99.90;;;;;;5092571;28;20196;-66
2021/04/07 22:42:19;;;;;;;12.17;2.70;;;4.20;99.90;;;;;;5092339;28;20341;-66
2021/04/07 22:44:45;;;;;;;11.30;1.60;;;4.20;99.90;;;;;;5088416;28;20185;-67
2021/04/07 22:47:11;;;;;;;11.20;2.23;;;4.20;99.90;;;;;;5072237;28;20169;-68
2021/04/07 22:49:36;;;;;;;5.97;2.10;;;4.20;99.90;;;;;;5072225;28;20177;-66
2021/04/07 22:52:02;;;;;;;7.07;1.77;;;4.30;99.90;;;;;;5070373;28;20201;-67
2021/04/07 22:54:27;;;;;;;6.67;2.10;;;4.30;99.90;;;;;;5071003;28;20752;-65
2021/04/07 22:56:53;;;;;;;8.20;1.97;;;4.30;99.90;;;;;;5071812;28;20248;-66
2021/04/07 22:59:18;;;;;;;7.77;2.23;;;4.30;99.90;;;;;;5072045;28;20188;-65
2021/04/07 23:01:44;;;;;;;11.93;2.53;;;4.30;99.90;;;;;;5071726;28;20686;-65
2021/04/07 23:04:09;;;;;;;7.70;2.17;;;4.30;99.90;;;;;;5071896;28;20169;-66
2021/04/07 23:06:35;;;;;;;7.03;2.03;;;4.40;99.90;;;;;;5072212;28;20195;-66
2021/04/07 23:09:00;;;;;;;8.03;1.93;;;4.40;99.90;;;;;;5071820;28;20180;-67
2021/04/07 23:11:26;;;;;;;6.10;2.47;;;4.50;99.90;;;;;;5071362;28;20299;-70
2021/04/07 23:13:51;;;;;;;4.57;1.63;;;4.50;99.90;;;;;;5071982;28;20168;-66
2021/04/07 23:16:17;;;;;;;7.03;2.43;;;4.50;99.90;;;;;;5071799;28;20509;-67
2021/04/07 23:18:42;;;;;;;7.43;2.73;;;4.50;99.90;;;;;;5071684;28;20212;-67
2021/04/07 23:21:08;;;;;;;7.47;1.63;;;4.60;99.90;;;;;;5071334;28;20193;-66
2021/04/07 23:23:33;;;;;;;14.70;2.73;;;4.60;99.90;;;;;;5071360;28;20177;-66
2021/04/07 23:25:59;;;;;;;10.23;2.83;;;4.60;99.90;;;;;;5070166;28;20181;-67
2021/04/07 23:28:25;;;;;;;13.73;2.70;;;4.60;99.90;;;;;;5071503;28;20173;-67
2021/04/07 23:30:51;;;;;;;8.97;2.57;;;4.70;99.90;;;;;;5071198;28;20205;-67
2021/04/07 23:33:16;;;;;;;10.70;2.97;;;4.60;99.90;;;;;;5071279;28;20177;-66
2021/04/07 23:35:42;;;;;;;12.93;2.90;;;4.70;99.90;;;;;;5071553;28;20165;-65
2021/04/07 23:38:07;;;;;;;3.53;1.97;;;4.70;99.90;;;;;;5071184;28;20184;-66
2021/04/07 23:40:33;;;;;;;12.23;2.60;;;4.80;99.90;;;;;;5070685;28;20672;-67
2021/04/07 23:42:58;;;;;;;7.17;2.40;;;4.80;99.90;;;;;;5071060;28;20169;-67
2021/04/07 23:45:24;;;;;;;6.03;2.47;;;4.70;99.90;;;;;;5071068;28;20533;-67
2021/04/07 23:47:50;;;;;;;4.83;1.30;;;4.70;99.90;;;;;;5071139;28;20243;-67
2021/04/07 23:50:15;;;;;;;10.30;2.10;;;4.70;99.90;;;;;;5070661;28;20176;-67
2021/04/07 23:52:41;;;;;;;12.30;2.50;;;4.70;99.90;;;;;;5070445;28;20668;-67
2021/04/07 23:55:07;;;;;;;15.47;2.20;;;4.70;99.90;;;;;;5070742;28;20165;-66
2021/04/07 23:57:32;;;;;;;12.57;2.87;;;4.70;99.90;;;;;;5070570;28;20215;-64
2021/04/07 23:59:58;;;;;;;13.20;2.87;;;4.70;99.90;;;;;;5070562;28;20169;-64
